Time;durP1;ratioP1;P1;durP2;ratioP2;P2;SDS_P1;SDS_P2;PMS_P1;PMS_P2;Temp;Humidity;BMP_temperature;BMP_pressure;BME280_temperature;BME280_humidity;BME280_pressure;Samples;Min_cycle;Max_cycle;Signal;HPM_P1;HPM_P2
2022/12/10 00:01:46;;;;;;;11.95;6.05;;;;;;;;;;5115113;28;20080;-60
2022/12/10 00:04:12;;;;;;;11.13;5.43;;;;;;;;;;5114965;28;20078;-59
2022/12/10 00:06:39;;;;;;;15.75;6.40;;;;;;;;;;5115015;28;20024;-59
2022/12/10 00:09:08;;;;;;;12.10;5.45;;;;;;;;;;5114757;28;20505;-60
2022/12/10 00:11:33;;;;;;;15.10;6.22;;;;;;;;;;5114949;28;20039;-60
2022/12/10 00:13:59;;;;;;;12.75;5.95;;;;;;;;;;5115144;27;20038;-60
2022/12/10 00:16:27;;;;;;;13.60;6.50;;;;;;;;;;5115115;28;20030;-60
2022/12/10 00:18:54;;;;;;;14.23;6.20;;;;;;;;;;5114829;28;20080;-60
2022/12/10 00:21:28;;;;;;;16.52;6.10;;;;;;;;;;5114933;28;20096;-60
2022/12/10 00:23:55;;;;;;;12.85;5.88;;;;;;;;;;5114934;28;20096;-59
2022/12/10 00:26:26;;;;;;;8.38;5.20;;;;;;;;;;5113299;28;20036;-60
2022/12/10 00:28:52;;;;;;;13.90;6.63;;;;;;;;;;5114516;28;20024;-60
2022/12/10 00:31:18;;;;;;;8.88;6.35;;;;;;;;;;5114808;28;20031;-60
2022/12/10 00:33:44;;;;;;;11.93;5.85;;;;;;;;;;5114489;28;20420;-59
2022/12/10 00:36:16;;;;;;;12.85;5.95;;;;;;;;;;5113105;28;20114;-60
2022/12/10 00:38:43;;;;;;;10.93;5.78;;;;;;;;;;5113480;28;20402;-60
2022/12/10 00:41:09;;;;;;;11.77;6.05;;;;;;;;;;5114281;28;20020;-60
2022/12/10 00:43:34;;;;;;;10.00;5.70;;;;;;;;;;5114289;28;20015;-60
2022/12/10 00:46:00;;;;;;;10.45;5.75;;;;;;;;;;5114459;28;20531;-60
2022/12/10 00:48:28;;;;;;;10.18;5.57;;;;;;;;;;5113889;28;20504;-60
2022/12/10 00:50:58;;;;;;;11.68;6.10;;;;;;;;;;5114420;28;20034;-60
2022/12/10 00:53:25;;;;;;;14.00;5.88;;;;;;;;;;5114294;28;20083;-60
2022/12/10 00:55:52;;;;;;;12.40;5.53;;;;;;;;;;5113992;28;20023;-60
2022/12/10 00:58:17;;;;;;;11.73;5.78;;;;;;;;;;5113930;28;20032;-60
2022/12/10 01:00:43;;;;;;;10.75;5.38;;;;;;;;;;5114168;28;20038;-60
2022/12/10 01:03:08;;;;;;;12.60;5.72;;;;;;;;;;5113205;28;20085;-59
2022/12/10 01:05:34;;;;;;;10.43;5.57;;;;;;;;;;5112536;28;20024;-59
2022/12/10 01:07:59;;;;;;;10.60;5.38;;;;;;;;;;5095327;28;20024;-60
2022/12/10 01:10:25;;;;;;;10.60;5.57;;;;;;;;;;5113934;28;20402;-60
2022/12/10 01:12:50;;;;;;;12.90;5.18;;;;;;;;;;5113967;28;20034;-60
2022/12/10 01:15:16;;;;;;;7.90;5.07;;;;;;;;;;5113966;28;20499;-60
2022/12/10 01:17:41;;;;;;;11.98;5.72;;;;;;;;;;5113839;28;20497;-60
2022/12/10 01:20:07;;;;;;;10.55;5.15;;;;;;;;;;5112283;28;20031;-59
2022/12/10 01:22:33;;;;;;;11.35;5.68;;;;;;;;;;5113554;28;20410;-60
2022/12/10 01:24:58;;;;;;;11.73;5.28;;;;;;;;;;5113635;28;20110;-60
2022/12/10 01:27:24;;;;;;;13.43;6.28;;;;;;;;;;5113705;28;20028;-60
2022/12/10 01:29:49;;;;;;;9.40;5.25;;;;;;;;;;5095132;28;20045;-60
2022/12/10 01:32:15;;;;;;;11.75;5.75;;;;;;;;;;5113337;28;20231;-60
2022/12/10 01:34:40;;;;;;;11.23;5.45;;;;;;;;;;5113317;28;20076;-60
2022/12/10 01:37:06;;;;;;;10.73;6.20;;;;;;;;;;5113300;28;20019;-60
2022/12/10 01:39:32;;;;;;;11.85;5.45;;;;;;;;;;5113177;28;20030;-60
2022/12/10 01:41:59;;;;;;;10.45;5.55;;;;;;;;;;5094740;28;20042;-60
2022/12/10 01:44:24;;;;;;;9.60;6.45;;;;;;;;;;5113057;28;20028;-60
2022/12/10 01:46:56;;;;;;;8.48;5.00;;;;;;;;;;5112842;28;20084;-60
2022/12/10 01:49:25;;;;;;;12.63;5.90;;;;;;;;;;5111769;28;20036;-60
2022/12/10 01:51:54;;;;;;;11.95;5.82;;;;;;;;;;5113015;28;20030;-60
2022/12/10 01:54:29;;;;;;;10.77;5.65;;;;;;;;;;5111772;28;20106;-59
2022/12/10 01:57:02;;;;;;;14.40;5.43;;;;;;;;;;5113294;28;20023;-59
2022/12/10 01:59:29;;;;;;;12.55;5.82;;;;;;;;;;5113214;28;20115;-59
2022/12/10 02:02:16;;;;;;;11.98;5.70;;;;;;;;;;5112847;28;20028;-60
2022/12/10 02:05:15;;;;;;;10.63;5.60;;;;;;;;;;5112865;28;20031;-59
2022/12/10 02:08:05;;;;;;;13.85;5.55;;;;;;;;;;5092727;28;20036;-60
2022/12/10 02:10:50;;;;;;;9.63;5.60;;;;;;;;;;5112755;28;20091;-59
2022/12/10 02:13:25;;;;;;;9.20;5.32;;;;;;;;;;5112816;28;20087;-60
2022/12/10 02:16:29;;;;;;;9.57;5.72;;;;;;;;;;5112784;28;20102;-59
2022/12/10 02:19:13;;;;;;;10.60;5.60;;;;;;;;;;5108956;28;20479;-59
2022/12/10 02:21:42;;;;;;;8.02;5.40;;;;;;;;;;5117293;28;20028;-59
2022/12/10 02:24:12;;;;;;;8.45;5.47;;;;;;;;;;5115799;28;20023;-60
2022/12/10 02:26:50;;;;;;;11.43;5.47;;;;;;;;;;5115752;28;20027;-59
2022/12/10 02:29:26;;;;;;;9.02;5.35;;;;;;;;;;5116826;28;20039;-60
2022/12/10 02:32:24;;;;;;;10.90;5.43;;;;;;;;;;5115653;28;20066;-60
2022/12/10 02:34:56;;;;;;;10.85;5.57;;;;;;;;;;5117016;28;20028;-60
2022/12/10 02:37:27;;;;;;;7.20;5.20;;;;;;;;;;5117019;28;20391;-59
2022/12/10 02:39:55;;;;;;;10.75;5.50;;;;;;;;;;5117059;28;20046;-59
2022/12/10 02:42:24;;;;;;;12.63;5.43;;;;;;;;;;5116973;28;20432;-59
2022/12/10 02:44:50;;;;;;;8.10;5.10;;;;;;;;;;5116604;28;20020;-59
2022/12/10 02:47:18;;;;;;;8.40;4.93;;;;;;;;;;5116510;28;20040;-60
2022/12/10 02:49:47;;;;;;;9.75;4.72;;;;;;;;;;5116405;28;20053;-60
2022/12/10 02:52:15;;;;;;;9.53;5.43;;;;;;;;;;5116465;28;20016;-59
2022/12/10 02:54:45;;;;;;;10.07;5.25;;;;;;;;;;5116324;28;20101;-59
2022/12/10 02:57:34;;;;;;;8.40;5.22;;;;;;;;;;5116343;28;20031;-59
2022/12/10 03:00:20;;;;;;;10.32;5.10;;;;;;;;;;5116545;28;20028;-60
2022/12/10 03:03:44;;;;;;;7.80;5.22;;;;;;;;;;5116299;28;20037;-59
2022/12/10 03:06:30;;;;;;;7.28;4.85;;;;;;;;;;5104672;28;20066;-59
2022/12/10 03:09:06;;;;;;;8.80;4.70;;;;;;;;;;5116039;27;20025;-59
2022/12/10 03:11:33;;;;;;;10.43;5.60;;;;;;;;;;5116194;28;20026;-59
2022/12/10 03:14:29;;;;;;;10.25;4.80;;;;;;;;;;5116276;28;20390;-60
2022/12/10 03:17:05;;;;;;;9.95;5.05;;;;;;;;;;5111522;28;20040;-60
2022/12/10 03:19:41;;;;;;;7.10;4.93;;;;;;;;;;5115992;28;20032;-60
2022/12/10 03:22:09;;;;;;;11.50;5.18;;;;;;;;;;5115863;28;20031;-60
2022/12/10 03:24:35;;;;;;;9.43;5.15;;;;;;;;;;5116137;28;20027;-60
2022/12/10 03:27:03;;;;;;;9.73;5.25;;;;;;;;;;5116060;28;20024;-60
2022/12/10 03:29:39;;;;;;;10.02;5.15;;;;;;;;;;5115855;28;20083;-59
2022/12/10 03:32:06;;;;;;;9.32;5.13;;;;;;;;;;5115734;28;20028;-60
2022/12/10 03:34:33;;;;;;;9.85;5.97;;;;;;;;;;5115681;28;20020;-60
2022/12/10 03:36:59;;;;;;;8.93;4.80;;;;;;;;;;5115575;28;20066;-60
2022/12/10 03:39:26;;;;;;;8.43;5.30;;;;;;;;;;5115877;28;20047;-60
2022/12/10 03:41:51;;;;;;;12.05;5.10;;;;;;;;;;5115518;28;20019;-60
2022/12/10 03:44:32;;;;;;;10.55;5.20;;;;;;;;;;5115820;27;20494;-60
2022/12/10 03:46:57;;;;;;;11.40;4.95;;;;;;;;;;5115412;28;20404;-60
2022/12/10 03:49:23;;;;;;;9.10;4.75;;;;;;;;;;5115402;28;20107;-60
2022/12/10 03:51:49;;;;;;;8.05;4.97;;;;;;;;;;5115285;28;20110;-60
2022/12/10 03:54:15;;;;;;;7.63;5.55;;;;;;;;;;5115532;27;20111;-59
2022/12/10 03:56:40;;;;;;;8.95;5.18;;;;;;;;;;5115198;27;20418;-59
2022/12/10 03:59:06;;;;;;;8.95;5.45;;;;;;;;;;5115113;28;20034;-60
2022/12/10 04:01:32;;;;;;;9.48;5.43;;;;;;;;;;5115397;28;20030;-60
2022/12/10 04:03:57;;;;;;;8.35;4.82;;;;;;;;;;5113939;28;20302;-60
2022/12/10 04:06:23;;;;;;;10.07;5.00;;;;;;;;;;5115005;28;20470;-59
2022/12/10 04:08:48;;;;;;;10.27;5.00;;;;;;;;;;5114949;28;20027;-59
2022/12/10 04:11:15;;;;;;;7.20;4.55;;;;;;;;;;5113734;28;20030;-60
2022/12/10 04:16:26;;;;;;;10.25;5.30;;;;;;;;;;5115139;28;20443;-59
2022/12/10 04:19:07;;;;;;;8.05;5.00;;;;;;;;;;5114713;28;20024;-59
2022/12/10 04:27:10;;;;;;;6.93;4.72;;;;;;;;;;5114698;28;20034;-60
2022/12/10 04:29:36;;;;;;;8.50;4.95;;;;;;;;;;5113279;28;20055;-60
2022/12/10 04:32:02;;;;;;;8.52;4.53;;;;;;;;;;5114540;28;20055;-60
2022/12/10 04:34:27;;;;;;;8.43;5.30;;;;;;;;;;5114705;27;20050;-60
2022/12/10 04:36:53;;;;;;;8.43;4.50;;;;;;;;;;5114454;28;20479;-60
2022/12/10 04:39:19;;;;;;;8.40;4.60;;;;;;;;;;5114304;28;20035;-60
2022/12/10 04:41:47;;;;;;;8.60;5.05;;;;;;;;;;5113843;28;20036;-60
2022/12/10 04:44:13;;;;;;;6.85;4.80;;;;;;;;;;5114200;28;20031;-60
2022/12/10 04:46:39;;;;;;;8.52;4.80;;;;;;;;;;5114219;28;20036;-60
2022/12/10 04:49:05;;;;;;;7.38;4.90;;;;;;;;;;5113900;28;20052;-60
2022/12/10 04:51:31;;;;;;;7.50;4.68;;;;;;;;;;5114170;28;20034;-60
2022/12/10 04:53:57;;;;;;;6.53;4.22;;;;;;;;;;5114267;28;20380;-60
2022/12/10 04:56:23;;;;;;;10.98;4.45;;;;;;;;;;5114078;28;20035;-59
2022/12/10 04:58:48;;;;;;;8.20;4.90;;;;;;;;;;5113901;28;20020;-60
2022/12/10 05:01:14;;;;;;;10.48;4.70;;;;;;;;;;5114020;28;20030;-59
2022/12/10 05:03:40;;;;;;;10.88;4.82;;;;;;;;;;5113902;28;20070;-60
2022/12/10 05:06:09;;;;;;;8.13;4.53;;;;;;;;;;5113842;28;20431;-60
2022/12/10 05:08:36;;;;;;;6.80;4.53;;;;;;;;;;5113790;28;20119;-60
2022/12/10 05:11:07;;;;;;;8.85;4.93;;;;;;;;;;5113643;28;20127;-59
2022/12/10 05:13:33;;;;;;;7.75;4.97;;;;;;;;;;5113712;28;20024;-59
2022/12/10 05:16:02;;;;;;;7.00;4.45;;;;;;;;;;5113725;28;20085;-59
2022/12/10 05:18:28;;;;;;;8.30;4.90;;;;;;;;;;5113854;28;20032;-60
2022/12/10 05:20:53;;;;;;;8.02;4.90;;;;;;;;;;5113565;28;20087;-60
2022/12/10 05:23:28;;;;;;;6.13;4.32;;;;;;;;;;5113555;28;20028;-60
2022/12/10 05:26:09;;;;;;;8.40;4.82;;;;;;;;;;5113494;28;20023;-60
2022/12/10 05:28:40;;;;;;;7.47;4.45;;;;;;;;;;5113476;28;20051;-59
2022/12/10 05:31:11;;;;;;;6.07;4.53;;;;;;;;;;5113409;28;20076;-60
2022/12/10 05:33:37;;;;;;;5.85;4.15;;;;;;;;;;5112244;28;20479;-60
2022/12/10 05:36:03;;;;;;;6.47;4.50;;;;;;;;;;5113351;28;20039;-60
2022/12/10 05:38:31;;;;;;;7.95;4.50;;;;;;;;;;5113457;28;20028;-59
2022/12/10 05:41:05;;;;;;;6.63;4.40;;;;;;;;;;5111949;28;20026;-59
2022/12/10 05:43:31;;;;;;;8.45;4.22;;;;;;;;;;5113440;28;20038;-60
2022/12/10 05:46:05;;;;;;;6.85;4.40;;;;;;;;;;5113240;28;20028;-60
2022/12/10 05:48:32;;;;;;;7.07;4.40;;;;;;;;;;5112922;28;20043;-59
2022/12/10 05:50:58;;;;;;;9.65;4.45;;;;;;;;;;5113134;28;20027;-59
2022/12/10 05:53:24;;;;;;;5.07;4.00;;;;;;;;;;5112155;28;20546;-59
2022/12/10 05:55:58;;;;;;;4.95;4.38;;;;;;;;;;5113228;28;20397;-59
2022/12/10 05:58:24;;;;;;;6.07;4.03;;;;;;;;;;5113028;28;20024;-59
2022/12/10 06:00:49;;;;;;;7.10;4.55;;;;;;;;;;5112957;28;20111;-59
2022/12/10 06:03:15;;;;;;;6.97;4.63;;;;;;;;;;5112886;28;20027;-60
2022/12/10 06:05:40;;;;;;;6.43;4.53;;;;;;;;;;5113154;28;20035;-60
2022/12/10 06:08:07;;;;;;;7.13;4.70;;;;;;;;;;5113152;28;20031;-59
2022/12/10 06:10:36;;;;;;;6.32;4.40;;;;;;;;;;5112815;28;20088;-59
2022/12/10 06:13:02;;;;;;;7.10;4.35;;;;;;;;;;5112922;28;20437;-60
2022/12/10 06:15:28;;;;;;;7.53;4.25;;;;;;;;;;5112647;28;20038;-59
2022/12/10 06:17:55;;;;;;;6.93;4.53;;;;;;;;;;5112756;28;20019;-59
2022/12/10 06:20:22;;;;;;;6.78;4.97;;;;;;;;;;5112656;28;20015;-60
2022/12/10 06:22:47;;;;;;;10.32;4.88;;;;;;;;;;5112690;28;20515;-59
2022/12/10 06:25:13;;;;;;;9.07;4.30;;;;;;;;;;5112693;28;20023;-60
2022/12/10 06:27:39;;;;;;;7.93;4.80;;;;;;;;;;5112682;28;20072;-59
2022/12/10 06:30:05;;;;;;;7.03;4.90;;;;;;;;;;5112381;28;20035;-59
2022/12/10 06:32:31;;;;;;;7.10;4.47;;;;;;;;;;5112570;28;20360;-60
2022/12/10 06:34:56;;;;;;;7.18;4.25;;;;;;;;;;5112595;28;20019;-60
2022/12/10 06:37:22;;;;;;;6.15;4.45;;;;;;;;;;5112664;28;20024;-60
2022/12/10 06:39:51;;;;;;;5.95;4.22;;;;;;;;;;5112523;28;20031;-60
2022/12/10 06:42:17;;;;;;;8.43;4.60;;;;;;;;;;5112884;28;20073;-60
2022/12/10 06:44:42;;;;;;;5.97;4.25;;;;;;;;;;5112737;28;20024;-60
2022/12/10 06:47:08;;;;;;;13.73;4.78;;;;;;;;;;5112288;28;20047;-60
2022/12/10 06:49:33;;;;;;;7.35;4.60;;;;;;;;;;5112631;28;20109;-60
2022/12/10 06:51:59;;;;;;;6.57;4.65;;;;;;;;;;5111087;28;20042;-60
2022/12/10 06:54:25;;;;;;;7.05;4.30;;;;;;;;;;5112347;28;20035;-60
2022/12/10 06:56:50;;;;;;;6.55;4.68;;;;;;;;;;5112393;28;20020;-60
2022/12/10 06:59:16;;;;;;;6.03;4.50;;;;;;;;;;5112292;28;20024;-60
2022/12/10 07:01:42;;;;;;;5.95;4.45;;;;;;;;;;5112521;28;20088;-60
2022/12/10 07:04:08;;;;;;;7.35;4.13;;;;;;;;;;5111280;28;20536;-60
2022/12/10 07:06:33;;;;;;;6.30;4.47;;;;;;;;;;5116256;28;20035;-61
2022/12/10 07:08:59;;;;;;;6.45;4.28;;;;;;;;;;5116268;28;20012;-60
2022/12/10 07:11:25;;;;;;;7.45;4.43;;;;;;;;;;5115965;28;20482;-60
2022/12/10 07:13:52;;;;;;;6.72;4.07;;;;;;;;;;5116091;28;20468;-60
2022/12/10 07:16:23;;;;;;;7.93;4.32;;;;;;;;;;5115904;28;20579;-61
2022/12/10 07:18:50;;;;;;;5.45;4.13;;;;;;;;;;5115952;28;20074;-61
2022/12/10 07:21:19;;;;;;;5.95;4.35;;;;;;;;;;5115893;28;20039;-60
2022/12/10 07:23:45;;;;;;;6.00;3.80;;;;;;;;;;5115791;28;20106;-61
2022/12/10 07:26:11;;;;;;;6.05;4.10;;;;;;;;;;5114909;28;20024;-61
2022/12/10 07:28:36;;;;;;;5.30;4.18;;;;;;;;;;5115786;28;20027;-60
2022/12/10 07:31:03;;;;;;;6.13;4.10;;;;;;;;;;5115611;28;20027;-60
2022/12/10 07:33:29;;;;;;;5.45;4.43;;;;;;;;;;5115529;28;20467;-60
2022/12/10 07:35:54;;;;;;;8.27;4.18;;;;;;;;;;5115847;28;20020;-60
2022/12/10 07:38:20;;;;;;;8.60;5.05;;;;;;;;;;5115548;28;20412;-60
2022/12/10 07:40:46;;;;;;;5.18;4.03;;;;;;;;;;5115540;28;20035;-60
2022/12/10 07:43:11;;;;;;;6.97;4.10;;;;;;;;;;5115383;28;20024;-60
2022/12/10 07:45:37;;;;;;;5.55;4.20;;;;;;;;;;5115717;28;20061;-60
2022/12/10 07:48:03;;;;;;;6.97;4.43;;;;;;;;;;5113851;28;20040;-60
2022/12/10 07:50:28;;;;;;;6.82;4.25;;;;;;;;;;5115237;28;20072;-60
2022/12/10 07:52:54;;;;;;;5.85;4.40;;;;;;;;;;5115176;28;20030;-61
2022/12/10 07:55:19;;;;;;;7.50;4.45;;;;;;;;;;5115205;28;20106;-60
2022/12/10 07:57:45;;;;;;;5.63;4.20;;;;;;;;;;5115502;28;20024;-60
2022/12/10 08:00:11;;;;;;;6.72;4.43;;;;;;;;;;5115101;28;20028;-60
2022/12/10 08:02:36;;;;;;;5.15;4.15;;;;;;;;;;5115348;28;20464;-61
2022/12/10 08:05:02;;;;;;;5.85;4.30;;;;;;;;;;5115278;28;20055;-61
2022/12/10 08:07:28;;;;;;;5.78;4.15;;;;;;;;;;5115004;27;20020;-61
2022/12/10 08:09:53;;;;;;;6.43;4.20;;;;;;;;;;5114817;28;20030;-61
2022/12/10 08:12:19;;;;;;;7.85;4.60;;;;;;;;;;5115055;28;20016;-60
2022/12/10 08:14:44;;;;;;;6.63;4.20;;;;;;;;;;5113618;28;20020;-60
2022/12/10 08:17:10;;;;;;;5.57;4.20;;;;;;;;;;5112619;28;20023;-61
2022/12/10 08:19:35;;;;;;;5.88;4.18;;;;;;;;;;5113634;28;20028;-61
2022/12/10 08:22:01;;;;;;;6.75;4.40;;;;;;;;;;5114632;28;20253;-61
2022/12/10 08:24:26;;;;;;;6.03;4.03;;;;;;;;;;5115108;27;20024;-61
2022/12/10 08:26:52;;;;;;;5.82;4.07;;;;;;;;;;5114556;28;20019;-61
2022/12/10 08:29:18;;;;;;;7.50;4.10;;;;;;;;;;5114601;28;20031;-61
2022/12/10 08:31:43;;;;;;;6.80;4.13;;;;;;;;;;5113297;28;20471;-60
2022/12/10 08:34:14;;;;;;;5.15;4.05;;;;;;;;;;5114504;28;20089;-61
2022/12/10 08:36:40;;;;;;;5.30;4.03;;;;;;;;;;5114442;28;20026;-61
2022/12/10 08:39:10;;;;;;;5.30;3.75;;;;;;;;;;5114464;28;20028;-61
2022/12/10 08:41:36;;;;;;;6.55;4.00;;;;;;;;;;5114716;28;20031;-60
2022/12/10 08:44:02;;;;;;;5.53;4.43;;;;;;;;;;5114371;28;20085;-60
2022/12/10 08:46:28;;;;;;;6.43;4.30;;;;;;;;;;5114262;28;20487;-61
2022/12/10 08:48:54;;;;;;;6.03;4.25;;;;;;;;;;5114068;28;20126;-61
2022/12/10 08:51:20;;;;;;;5.65;4.15;;;;;;;;;;5112851;28;20153;-60
2022/12/10 08:53:47;;;;;;;6.45;4.60;;;;;;;;;;5114165;28;20020;-59
2022/12/10 08:56:15;;;;;;;5.32;4.35;;;;;;;;;;5114261;28;20023;-59
2022/12/10 08:58:41;;;;;;;5.75;4.10;;;;;;;;;;5106195;28;20024;-59
2022/12/10 09:01:08;;;;;;;5.88;4.18;;;;;;;;;;5110526;28;20027;-59
2022/12/10 09:03:35;;;;;;;5.90;4.20;;;;;;;;;;5112005;28;20057;-59
2022/12/10 09:06:06;;;;;;;5.68;4.38;;;;;;;;;;5109983;28;20019;-58
2022/12/10 09:08:32;;;;;;;5.57;3.67;;;;;;;;;;5135939;27;20486;-59
2022/12/10 09:10:57;;;;;;;6.07;3.92;;;;;;;;;;5111035;28;20031;-59
2022/12/10 09:13:23;;;;;;;6.28;4.47;;;;;;;;;;5110317;28;20023;-59
2022/12/10 09:15:51;;;;;;;4.22;3.83;;;;;;;;;;5112865;28;20047;-59
2022/12/10 09:18:17;;;;;;;5.68;4.25;;;;;;;;;;5111123;28;20112;-59
2022/12/10 09:20:42;;;;;;;6.38;4.25;;;;;;;;;;5111561;28;20114;-59
2022/12/10 09:23:08;;;;;;;6.72;4.40;;;;;;;;;;5091393;28;20020;-60
2022/12/10 09:25:33;;;;;;;6.10;4.07;;;;;;;;;;5111093;28;20031;-60
2022/12/10 09:27:59;;;;;;;6.05;4.28;;;;;;;;;;5109069;28;20034;-60
2022/12/10 09:30:24;;;;;;;4.68;3.88;;;;;;;;;;5110903;28;20047;-59
2022/12/10 09:32:50;;;;;;;6.68;4.40;;;;;;;;;;5111582;28;20463;-60
2022/12/10 09:35:16;;;;;;;5.07;4.10;;;;;;;;;;5107840;28;20030;-60
2022/12/10 09:37:41;;;;;;;6.35;4.60;;;;;;;;;;5113304;28;20585;-59
2022/12/10 09:40:07;;;;;;;4.97;3.55;;;;;;;;;;5112052;28;20096;-61
2022/12/10 09:42:53;;;;;;;5.60;3.85;;;;;;;;;;5112164;28;20111;-63
2022/12/10 09:45:24;;;;;;;7.13;4.20;;;;;;;;;;5113340;28;20027;-61
2022/12/10 09:48:41;;;;;;;5.40;3.75;;;;;;;;;;5109573;28;20118;-62
2022/12/10 09:51:17;;;;;;;4.60;3.92;;;;;;;;;;5099265;28;20031;-61
2022/12/10 09:53:45;;;;;;;7.10;4.00;;;;;;;;;;5106185;28;20023;-60
2022/12/10 09:56:24;;;;;;;5.55;3.80;;;;;;;;;;5106395;28;20123;-60
2022/12/10 09:58:50;;;;;;;4.82;3.70;;;;;;;;;;5112555;28;20019;-61
2022/12/10 10:01:19;;;;;;;5.60;4.15;;;;;;;;;;5112460;28;20085;-59
2022/12/10 10:03:45;;;;;;;5.13;3.90;;;;;;;;;;5109165;28;20475;-59
2022/12/10 10:06:13;;;;;;;5.78;4.10;;;;;;;;;;5112164;28;20067;-59
2022/12/10 10:08:53;;;;;;;5.45;4.10;;;;;;;;;;5112769;28;20023;-59
2022/12/10 10:11:23;;;;;;;7.20;4.15;;;;;;;;;;5112415;28;20081;-59
2022/12/10 10:14:16;;;;;;;4.68;3.92;;;;;;;;;;5112635;28;20071;-59
2022/12/10 10:16:53;;;;;;;5.57;3.83;;;;;;;;;;5112603;28;20024;-59
2022/12/10 10:19:24;;;;;;;4.70;4.18;;;;;;;;;;5112689;28;20034;-59
2022/12/10 10:21:50;;;;;;;6.22;4.38;;;;;;;;;;5112727;28;20527;-59
2022/12/10 10:24:21;;;;;;;5.20;3.70;;;;;;;;;;5112183;28;20061;-59
2022/12/10 10:26:48;;;;;;;5.68;4.22;;;;;;;;;;5112676;28;20028;-59
2022/12/10 10:29:18;;;;;;;5.38;4.18;;;;;;;;;;5112571;28;20028;-62
2022/12/10 10:31:44;;;;;;;5.45;4.20;;;;;;;;;;5112899;28;20024;-59
2022/12/10 10:34:22;;;;;;;7.68;4.03;;;;;;;;;;5112665;28;20031;-60
2022/12/10 10:37:03;;;;;;;4.97;3.63;;;;;;;;;;5112645;28;20460;-59
2022/12/10 10:39:31;;;;;;;4.32;3.92;;;;;;;;;;5113522;28;20027;-60
2022/12/10 10:41:59;;;;;;;5.80;4.13;;;;;;;;;;5114928;28;20440;-60
2022/12/10 10:44:27;;;;;;;5.68;4.03;;;;;;;;;;5116915;28;20380;-60
2022/12/10 10:46:55;;;;;;;4.55;3.97;;;;;;;;;;5116326;28;20012;-60
2022/12/10 10:49:26;;;;;;;5.32;3.85;;;;;;;;;;5116530;28;20432;-60
2022/12/10 10:51:57;;;;;;;6.88;3.95;;;;;;;;;;5116864;28;20432;-60
2022/12/10 10:54:39;;;;;;;5.30;4.30;;;;;;;;;;5115179;28;20024;-60
2022/12/10 10:57:25;;;;;;;6.43;4.30;;;;;;;;;;5116532;28;20023;-59
2022/12/10 11:00:00;;;;;;;6.38;4.20;;;;;;;;;;5116241;28;20540;-60
2022/12/10 11:02:40;;;;;;;6.22;4.25;;;;;;;;;;5116371;28;20047;-60
2022/12/10 11:05:23;;;;;;;4.93;3.80;;;;;;;;;;5116424;28;20019;-60
2022/12/10 11:07:58;;;;;;;5.78;3.85;;;;;;;;;;5115054;28;20035;-60
2022/12/10 11:10:25;;;;;;;4.93;4.05;;;;;;;;;;5116146;28;20104;-60
2022/12/10 11:13:00;;;;;;;5.55;4.03;;;;;;;;;;5116073;27;20056;-60
2022/12/10 11:15:41;;;;;;;4.05;3.65;;;;;;;;;;5115993;28;20106;-60
2022/12/10 11:18:36;;;;;;;4.93;4.07;;;;;;;;;;5116362;28;20024;-61
2022/12/10 11:21:14;;;;;;;4.50;3.80;;;;;;;;;;5116138;28;20095;-60
2022/12/10 11:23:42;;;;;;;5.80;4.18;;;;;;;;;;5116266;28;20031;-61
2022/12/10 11:26:17;;;;;;;10.75;4.47;;;;;;;;;;5115782;28;20036;-61
2022/12/10 11:29:01;;;;;;;6.97;4.07;;;;;;;;;;5116331;28;20100;-61
2022/12/10 11:31:50;;;;;;;6.18;3.97;;;;;;;;;;5115861;28;20586;-60
2022/12/10 11:34:24;;;;;;;5.07;3.83;;;;;;;;;;5115757;28;20028;-61
2022/12/10 11:37:04;;;;;;;5.25;4.60;;;;;;;;;;5115841;28;20347;-61
2022/12/10 11:39:57;;;;;;;6.28;4.65;;;;;;;;;;5115970;28;20031;-61
2022/12/10 11:42:46;;;;;;;4.90;3.90;;;;;;;;;;5115646;28;20027;-61
2022/12/10 11:45:42;;;;;;;4.65;3.97;;;;;;;;;;5104982;28;20042;-61
2022/12/10 11:48:33;;;;;;;5.95;4.20;;;;;;;;;;5115280;28;20453;-62
2022/12/10 11:51:15;;;;;;;5.32;4.13;;;;;;;;;;5114438;28;20035;-61
2022/12/10 11:53:53;;;;;;;5.30;3.65;;;;;;;;;;5115392;28;20026;-61
2022/12/10 11:56:31;;;;;;;5.75;4.22;;;;;;;;;;5115547;28;20031;-62
2022/12/10 11:59:23;;;;;;;6.15;4.30;;;;;;;;;;5115533;28;20107;-61
2022/12/10 12:02:08;;;;;;;7.97;4.60;;;;;;;;;;5115528;28;20047;-61
2022/12/10 12:05:23;;;;;;;6.13;4.03;;;;;;;;;;5115045;28;20028;-61
2022/12/10 12:08:19;;;;;;;5.97;4.35;;;;;;;;;;5100353;28;20036;-61
2022/12/10 12:11:11;;;;;;;6.43;3.90;;;;;;;;;;5106097;28;20058;-60
2022/12/10 12:13:46;;;;;;;5.95;4.28;;;;;;;;;;5114976;28;20030;-61
2022/12/10 12:16:17;;;;;;;6.03;4.45;;;;;;;;;;5114996;28;20069;-61
2022/12/10 12:18:58;;;;;;;5.88;4.43;;;;;;;;;;5114918;27;20016;-61
2022/12/10 12:21:25;;;;;;;5.18;4.20;;;;;;;;;;5114851;28;20463;-61
2022/12/10 12:24:00;;;;;;;4.43;3.95;;;;;;;;;;5114759;28;20031;-61
2022/12/10 12:26:37;;;;;;;5.80;4.18;;;;;;;;;;5114637;28;20041;-61
2022/12/10 12:29:06;;;;;;;5.30;4.35;;;;;;;;;;5114639;28;20036;-61
2022/12/10 12:31:38;;;;;;;6.30;4.35;;;;;;;;;;5114658;28;20105;-61
2022/12/10 12:34:06;;;;;;;8.57;4.65;;;;;;;;;;5114814;28;20026;-61
2022/12/10 12:36:34;;;;;;;6.65;4.25;;;;;;;;;;5114529;28;20031;-61
2022/12/10 12:39:06;;;;;;;5.95;4.28;;;;;;;;;;5114382;28;20176;-61
2022/12/10 12:41:51;;;;;;;5.85;4.43;;;;;;;;;;5114429;28;20092;-61
2022/12/10 12:44:58;;;;;;;5.03;4.05;;;;;;;;;;5114319;28;20031;-61
2022/12/10 12:47:59;;;;;;;4.63;3.70;;;;;;;;;;5092016;28;20036;-61
2022/12/10 12:50:35;;;;;;;4.18;3.75;;;;;;;;;;5091336;28;20036;-61
2022/12/10 12:53:02;;;;;;;4.97;3.78;;;;;;;;;;5110607;28;20085;-61
2022/12/10 12:55:50;;;;;;;6.13;3.88;;;;;;;;;;5113780;28;20023;-61
2022/12/10 12:58:36;;;;;;;5.00;4.10;;;;;;;;;;5112954;28;20059;-60
2022/12/10 13:01:22;;;;;;;5.47;3.90;;;;;;;;;;5113095;28;20035;-61
2022/12/10 13:03:49;;;;;;;5.45;4.47;;;;;;;;;;5113023;28;20372;-61
2022/12/10 13:06:24;;;;;;;5.63;4.20;;;;;;;;;;5114088;28;20426;-61
2022/12/10 13:09:13;;;;;;;6.22;4.30;;;;;;;;;;5112385;28;20037;-61
2022/12/10 13:12:05;;;;;;;8.60;4.38;;;;;;;;;;5110055;28;20039;-61
2022/12/10 13:14:36;;;;;;;5.07;4.10;;;;;;;;;;5113644;28;20024;-61
2022/12/10 13:17:24;;;;;;;;;;;;;;;;;;5114112;28;20028;-61
2022/12/10 13:19:57;;;;;;;5.45;3.80;;;;;;;;;;5107808;28;20402;-61
2022/12/10 13:22:38;;;;;;;5.50;4.30;;;;;;;;;;5113359;28;20080;-61
2022/12/10 13:25:11;;;;;;;4.97;4.07;;;;;;;;;;5113813;28;20020;-61
2022/12/10 13:27:37;;;;;;;4.97;4.00;;;;;;;;;;5112982;28;20036;-61
2022/12/10 13:30:35;;;;;;;5.38;4.05;;;;;;;;;;5112985;28;20061;-61
2022/12/10 13:33:13;;;;;;;5.07;3.80;;;;;;;;;;5113397;28;20035;-62
2022/12/10 13:35:50;;;;;;;5.15;3.80;;;;;;;;;;5113398;28;20024;-61
2022/12/10 13:38:24;;;;;;;4.35;3.85;;;;;;;;;;5112054;28;20051;-61
2022/12/10 13:46:56;;;;;;;4.60;3.90;;;;;;;;;;5112086;28;20165;-61
2022/12/10 13:49:34;;;;;;;4.30;3.85;;;;;;;;;;5113350;28;20035;-61
2022/12/10 13:52:12;;;;;;;5.65;4.45;;;;;;;;;;5113539;28;20441;-61
2022/12/10 13:54:53;;;;;;;5.18;4.18;;;;;;;;;;5113061;28;20034;-61
2022/12/10 13:57:44;;;;;;;5.60;4.07;;;;;;;;;;5113032;28;20110;-62
2022/12/10 14:00:22;;;;;;;6.15;4.07;;;;;;;;;;5112035;28;20031;-61
2022/12/10 14:03:08;;;;;;;4.40;4.00;;;;;;;;;;5113305;28;20038;-61
2022/12/10 14:05:52;;;;;;;4.72;3.90;;;;;;;;;;5113179;28;20024;-61
2022/12/10 14:08:22;;;;;;;5.55;3.97;;;;;;;;;;5112847;28;20032;-60
2022/12/10 14:10:49;;;;;;;4.68;4.03;;;;;;;;;;5113121;28;20429;-61
2022/12/10 14:13:18;;;;;;;5.47;4.22;;;;;;;;;;5112810;28;20480;-61
2022/12/10 14:15:54;;;;;;;6.10;4.30;;;;;;;;;;5112403;28;20410;-61
2022/12/10 14:18:20;;;;;;;4.35;3.75;;;;;;;;;;5113185;28;20023;-61
2022/12/10 14:20:50;;;;;;;4.63;3.88;;;;;;;;;;5112737;28;20046;-61
2022/12/10 14:23:33;;;;;;;5.55;4.20;;;;;;;;;;5112778;28;20171;-62
2022/12/10 14:26:09;;;;;;;5.78;3.88;;;;;;;;;;5112678;28;20036;-61
2022/12/10 14:28:54;;;;;;;6.82;4.82;;;;;;;;;;5112822;28;20379;-61
2022/12/10 14:31:25;;;;;;;4.88;4.05;;;;;;;;;;5113006;28;20072;-61
2022/12/10 14:33:52;;;;;;;5.53;4.05;;;;;;;;;;5111049;28;20027;-62
2022/12/10 14:36:51;;;;;;;5.10;3.80;;;;;;;;;;5110889;28;20098;-61
2022/12/10 14:39:25;;;;;;;5.25;3.80;;;;;;;;;;5098057;28;20040;-61
2022/12/10 14:41:54;;;;;;;5.00;3.83;;;;;;;;;;5110764;28;20157;-61
2022/12/10 14:44:22;;;;;;;6.70;4.30;;;;;;;;;;5108234;28;20043;-61
2022/12/10 14:46:48;;;;;;;5.13;3.97;;;;;;;;;;5110213;28;20096;-61
2022/12/10 14:49:24;;;;;;;4.07;3.67;;;;;;;;;;5110122;28;20035;-61
2022/12/10 14:51:51;;;;;;;6.13;3.92;;;;;;;;;;5110255;28;20019;-61
2022/12/10 14:54:33;;;;;;;4.13;3.70;;;;;;;;;;5111085;28;20023;-60
2022/12/10 14:57:05;;;;;;;6.35;4.30;;;;;;;;;;5110743;28;20092;-61
2022/12/10 14:59:55;;;;;;;5.03;4.00;;;;;;;;;;5110200;28;20047;-61
2022/12/10 15:02:36;;;;;;;4.90;3.85;;;;;;;;;;5111068;28;20027;-62
2022/12/10 15:05:03;;;;;;;5.82;4.00;;;;;;;;;;5110497;28;20564;-61
2022/12/10 15:07:36;;;;;;;4.63;4.05;;;;;;;;;;5110541;28;20031;-61
2022/12/10 15:10:06;;;;;;;4.90;3.85;;;;;;;;;;5110057;28;20028;-61
2022/12/10 15:12:42;;;;;;;5.30;3.95;;;;;;;;;;5107780;28;20047;-61
2022/12/10 15:15:15;;;;;;;4.75;4.10;;;;;;;;;;5110620;28;20040;-62
2022/12/10 15:17:50;;;;;;;4.88;3.90;;;;;;;;;;5092535;28;20032;-60
2022/12/10 15:20:29;;;;;;;6.10;4.10;;;;;;;;;;5110617;28;20031;-60
2022/12/10 15:22:55;;;;;;;4.55;3.95;;;;;;;;;;5110919;28;20417;-62